This is the latest recevied weather packets stored in our database for station/object HK6RM-16. If no packets are shown the sender has not sent any weather packets the latest 10 day(s).
| Time | Temp. | Humidity | Pressure | Rain* | Wind** | Luminosity | Snow |
|---|---|---|---|---|---|---|---|
| 1787680929 | 18.89° C | 65% | 1012 hPa | 0 mm | - | - | - |
| 1787679969 | 18.89° C | 65% | 1012 hPa | 0 mm | - | - | - |
| 1787679008 | 18.89° C | 65% | 1013 hPa | 0 mm | - | - | - |
| 1787678048 | 18.89° C | 65% | 1014 hPa | 0 mm | - | - | - |
| 1787677087 | 18.89° C | 65% | 1014 hPa | 0 mm | - | - | - |
| 1787676127 | 19.44° C | 65% | 1014 hPa | 0 mm | - | - | - |
| 1787675166 | 18.89° C | 68% | 1014 hPa | 0 mm | - | - | - |
| 1787674206 | 19.44° C | 68% | 1014 hPa | 0 mm | - | - | - |
| 1787673246 | 20° C | 68% | 1014 hPa | 0 mm | - | - | - |
| 1787672285 | 18.89° C | 71% | 1014 hPa | 0 mm | - | - | - |
| 1787671325 | 18.89° C | 71% | 1015 hPa | 0 mm | - | - | - |
| 1787670364 | 18.89° C | 72% | 1015 hPa | 0 mm | - | - | - |
| 1787669404 | 18.89° C | 72% | 1015 hPa | 0 mm | - | - | - |
| 1787668443 | 17.78° C | 67% | 1016 hPa | 0 mm | - | - | - |
| 1787667483 | 18.33° C | 66% | 1016 hPa | 0 mm | - | - | - |
| 1787666522 | 18.89° C | 64% | 1016 hPa | 0 mm | - | - | - |
| 1787665562 | 19.44° C | 64% | 1016 hPa | 0 mm | - | - | - |
| 1787664601 | 15° C | 72% | 1016 hPa | 0 mm | - | - | - |
| 1787663641 | 15° C | 72% | 1016 hPa | 0 mm | - | - | - |
| 1787662680 | 15° C | 72% | 1016 hPa | 0 mm | - | - | - |
| 1787661720 | 12.78° C | 77% | 1016 hPa | 0 mm | - | - | - |
| 1787660759 | 13.33° C | 77% | 1017 hPa | 0 mm | - | - | - |
| 1787659799 | 13.89° C | 77% | 1017 hPa | 0 mm | - | - | - |
| 1787658838 | 14.44° C | 77% | 1017 hPa | 0 mm | - | - | - |
| 1787657878 | 10° C | 77% | 1017 hPa | 0 mm | - | - | - |
* Rain latest hour (hover to see other rain measurements)
** Current wind speed in m/s (hover to see current wind gust speed)